Information Last Ob Photographs Calibration Meteogram Network Table Neighbors 7 Day High/Low Plot Month High/Low Plot Month Rainfall Plot Observation History Wind Roses Custom Wind Roses Data Calendar Download

Most Recent Observation

This application displays the last observation received by the IEM from this site. The time stamp is in America/Chicago timezone.

Observation Local Time24 Jul 2017, 6:54 AM
Observation UTC Time2017-07-24T11:54:00Z
Air Temp [F]64.9
Maximum Air Temperature [F]70
Minimum Air Temperature [F]64
Dew Point [F]60.1
Wind Direction30
Wind Speed [knots]6
Altimeter [inches]30.02
Raw Observation/ProductKDSM 241154Z 03006KT 10SM CLR 18/16 A3002 RMK AO2 SLP158 T01830156 10211 20178 53013

This data was provided by a JSON(P) webservice. You can find more JSON services.